createdAt,value
2023-04-13T07:11:11.200Z,19.60
2023-04-13T07:14:15.240Z,19.40
2023-04-13T07:17:17.703Z,19.50
2023-04-13T07:20:19.330Z,19.50
2023-04-13T07:23:22.482Z,19.70
2023-04-13T07:26:26.922Z,19.90
2023-04-13T07:29:29.160Z,19.90
2023-04-13T07:32:36.669Z,20.50
2023-04-13T07:35:39.028Z,20.00
2023-04-13T07:38:41.686Z,20.20
2023-04-13T07:41:46.096Z,20.60
2023-04-13T07:44:51.741Z,20.80
2023-04-13T07:47:54.452Z,20.40
2023-04-13T07:50:56.026Z,20.50
2023-04-13T07:53:58.436Z,21.20
2023-04-13T07:57:07.379Z,20.70
2023-04-13T08:00:13.458Z,20.60
2023-04-13T08:03:19.181Z,20.70
2023-04-13T08:06:26.576Z,20.60
2023-04-13T08:09:31.228Z,20.60
2023-04-13T08:12:33.447Z,20.70
2023-04-13T08:15:35.513Z,20.80
2023-04-13T08:18:36.928Z,21.10
2023-04-13T08:21:41.873Z,20.90
2023-04-13T08:24:43.502Z,21.00
2023-04-13T08:27:45.949Z,21.00
2023-04-13T08:30:48.593Z,21.10
2023-04-13T08:33:50.219Z,20.90
2023-04-13T08:36:51.863Z,21.70
2023-04-13T08:39:58.722Z,21.30
2023-04-13T08:43:01.236Z,21.20
2023-04-13T08:46:05.753Z,21.50
2023-04-13T08:49:09.092Z,21.30
2023-04-13T08:52:29.943Z,21.00
2023-04-13T08:55:34.157Z,21.30
2023-04-13T08:58:42.108Z,20.90
2023-04-13T09:01:45.666Z,21.20
2023-04-13T09:04:49.991Z,21.30
2023-04-13T09:07:57.834Z,21.10
2023-04-13T09:10:59.337Z,21.20
2023-04-13T09:14:01.924Z,21.00
2023-04-13T09:17:06.794Z,21.20
2023-04-13T09:20:16.220Z,21.50
2023-04-13T09:23:17.764Z,21.50
2023-04-13T09:26:20.262Z,21.10
2023-04-13T09:29:23.007Z,21.20
2023-04-13T09:32:26.178Z,21.40
2023-04-13T09:35:30.138Z,21.20
2023-04-13T09:38:32.037Z,21.40
2023-04-13T09:41:35.330Z,21.10
2023-04-13T09:44:37.551Z,21.00
2023-04-13T09:47:40.261Z,21.20
2023-04-13T09:50:42.292Z,21.00
2023-04-13T09:53:46.617Z,21.20
2023-04-13T09:56:51.853Z,21.40
2023-04-13T09:59:56.921Z,21.10
2023-04-13T10:03:00.774Z,21.10
2023-04-13T10:06:07.018Z,21.10
2023-04-13T10:09:09.857Z,21.50
2023-04-13T10:12:13.135Z,21.30
2023-04-13T10:15:30.869Z,21.10
2023-04-13T10:18:42.884Z,21.10
2023-04-13T10:21:50.326Z,21.10
2023-04-13T10:24:52.324Z,21.40
2023-04-13T10:27:57.459Z,21.00
2023-04-13T10:31:02.742Z,21.10
2023-04-13T10:34:04.884Z,21.20
2023-04-13T10:37:18.470Z,21.20
2023-04-13T10:40:22.925Z,21.20
2023-04-13T10:43:27.008Z,21.40
2023-04-13T10:46:29.737Z,21.20
2023-04-13T10:49:31.825Z,21.10
2023-04-13T10:52:33.411Z,21.10
2023-04-13T10:55:34.983Z,21.10
2023-04-13T10:58:36.377Z,21.80
2023-04-13T11:01:40.326Z,21.00
2023-04-13T11:04:47.028Z,21.10
2023-04-13T11:07:55.439Z,21.10
2023-04-13T11:10:57.268Z,21.20
2023-04-13T11:14:01.594Z,21.10
2023-04-13T11:17:07.264Z,21.20
2023-04-13T11:20:10.609Z,21.10
2023-04-13T11:23:14.714Z,21.20
2023-04-13T11:26:16.856Z,21.50
2023-04-13T11:29:18.574Z,21.10
2023-04-13T11:32:20.725Z,21.30
2023-04-13T11:35:22.802Z,21.30
2023-04-13T11:38:24.564Z,21.10
2023-04-13T11:41:28.096Z,21.10
2023-04-13T11:44:29.518Z,21.20
2023-04-13T11:47:32.164Z,21.20
2023-04-13T11:50:33.775Z,21.20
2023-04-13T11:53:37.903Z,21.20
2023-04-13T11:56:40.109Z,21.20
2023-04-13T11:59:41.866Z,21.10
2023-04-13T12:03:00.025Z,21.50
2023-04-13T12:06:04.433Z,21.30
2023-04-13T12:09:13.057Z,21.60
2023-04-13T12:15:40.522Z,21.20
2023-04-13T12:18:47.774Z,21.20
2023-04-13T12:21:55.999Z,21.60
2023-04-13T12:24:59.386Z,21.70
2023-04-13T12:28:06.298Z,21.40
2023-04-13T12:31:11.331Z,21.30
2023-04-13T12:34:13.335Z,21.40
2023-04-13T12:37:14.753Z,21.20
2023-04-13T12:40:17.649Z,21.30
2023-04-13T12:43:19.049Z,21.20
2023-04-13T12:46:20.682Z,21.70
2023-04-13T12:56:19.968Z,21.50
2023-04-13T12:59:22.263Z,21.50
2023-04-13T13:02:25.022Z,21.50
2023-04-13T13:05:26.690Z,21.60
2023-04-13T13:08:32.666Z,21.60
2023-04-13T13:11:36.651Z,21.60
2023-04-13T13:14:38.066Z,21.60
2023-04-13T13:17:39.497Z,21.60
2023-04-13T13:20:44.833Z,21.70
2023-04-13T13:23:46.443Z,21.60
2023-04-13T13:27:12.094Z,21.60
2023-04-13T13:30:11.164Z,21.50
2023-04-13T13:40:28.870Z,22.00
2023-04-13T13:43:30.579Z,21.60
2023-04-13T13:46:32.151Z,21.50
2023-04-13T13:49:38.259Z,21.70
2023-04-13T13:53:01.524Z,21.80
2023-04-13T13:56:07.602Z,21.50
2023-04-13T13:59:10.294Z,21.60
2023-04-13T14:02:11.706Z,21.90
2023-04-13T14:05:13.218Z,21.60
2023-04-13T14:08:15.250Z,22.10
2023-04-13T14:12:01.155Z,22.00
2023-04-13T14:18:12.561Z,22.00
2023-04-13T14:21:14.979Z,21.90
2023-04-13T14:24:16.456Z,22.00
2023-04-13T14:27:17.874Z,22.10
2023-04-13T14:31:57.235Z,22.00
2023-04-13T14:34:59.594Z,22.00
2023-04-13T14:38:01.206Z,21.80
2023-04-13T14:41:02.651Z,22.20
2023-04-13T14:44:04.097Z,22.30
2023-04-13T14:47:09.389Z,22.20
2023-04-13T14:50:12.298Z,21.90
2023-04-13T14:53:13.776Z,21.70
2023-04-13T14:56:17.158Z,21.90
2023-04-13T14:59:18.512Z,21.70
2023-04-13T15:04:10.445Z,22.20
2023-04-13T15:07:14.453Z,21.80
2023-04-13T15:10:16.882Z,21.70
2023-04-13T15:13:18.335Z,21.90
2023-04-13T15:16:20.055Z,21.80
2023-04-13T15:19:21.928Z,21.90
2023-04-13T15:22:23.832Z,21.90
2023-04-13T15:25:26.073Z,21.90
2023-04-13T15:28:27.810Z,22.40
2023-04-13T15:31:29.284Z,22.00
2023-04-13T15:34:31.558Z,22.50
2023-04-13T15:37:33.070Z,21.90
2023-04-13T15:40:35.502Z,22.10
2023-04-13T15:43:37.142Z,22.00
2023-04-13T15:46:39.318Z,22.00
2023-04-13T15:49:41.302Z,22.30
2023-04-13T15:55:44.835Z,22.40
2023-04-13T15:58:46.573Z,22.10
2023-04-13T16:01:49.471Z,22.20
2023-04-13T16:04:52.663Z,22.30
2023-04-13T16:07:57.354Z,22.60
2023-04-13T16:11:00.501Z,22.70
2023-04-13T16:14:06.471Z,22.60
2023-04-13T16:17:08.728Z,22.60
2023-04-13T16:20:18.786Z,22.10
2023-04-13T16:23:23.546Z,22.20
2023-04-13T16:26:25.127Z,22.30
2023-04-13T16:29:27.899Z,22.20
2023-04-13T16:32:29.354Z,22.30
2023-04-13T16:35:33.878Z,22.20
2023-04-13T16:38:38.208Z,22.30
2023-04-13T16:41:40.151Z,22.10
2023-04-13T16:44:41.564Z,22.60
2023-04-13T16:47:45.375Z,22.30
2023-04-13T16:50:47.450Z,22.20
2023-04-13T16:53:51.843Z,22.30
2023-04-13T16:56:53.372Z,22.20
2023-04-13T16:59:57.060Z,22.10
2023-04-13T17:02:58.661Z,22.70
2023-04-13T17:06:01.585Z,22.60
2023-04-13T17:09:03.150Z,22.30
2023-04-13T17:12:05.068Z,22.20
2023-04-13T17:15:07.670Z,22.50
2023-04-13T17:18:12.051Z,22.40
2023-04-13T17:21:14.163Z,22.40
2023-04-13T17:24:16.214Z,22.30
2023-04-13T17:27:18.015Z,22.40
2023-04-13T17:30:20.182Z,22.30
2023-04-13T17:33:23.463Z,22.40
2023-04-13T17:36:26.636Z,22.40
2023-04-13T17:39:30.569Z,22.40
2023-04-13T17:42:32.018Z,22.60
2023-04-13T17:45:38.500Z,22.40
2023-04-13T17:48:44.123Z,22.40
2023-04-13T17:51:47.492Z,22.50
2023-04-13T17:54:48.970Z,22.30
2023-04-13T17:57:50.193Z,22.80
2023-04-13T18:00:51.608Z,23.10
2023-04-13T18:03:53.238Z,22.40
2023-04-13T18:06:56.443Z,22.40
2023-04-13T18:09:58.109Z,22.50
2023-04-13T18:12:59.841Z,22.30
2023-04-13T18:16:02.455Z,22.30
2023-04-13T18:19:06.791Z,22.40
2023-04-13T18:22:08.980Z,22.30
2023-04-13T18:25:12.707Z,22.30
2023-04-13T18:28:16.444Z,22.30
2023-04-13T18:31:18.308Z,22.40
2023-04-13T18:34:19.952Z,22.30
2023-04-13T18:37:23.430Z,22.30
2023-04-13T18:40:24.779Z,22.70
2023-04-13T18:43:26.018Z,22.10
2023-04-13T18:46:29.720Z,22.40
2023-04-13T18:49:31.120Z,22.40
2023-04-13T18:52:33.084Z,22.20
2023-04-13T18:55:37.633Z,22.10
2023-04-13T18:58:39.039Z,22.20
2023-04-13T19:01:40.256Z,22.20
2023-04-13T19:04:41.826Z,22.20
2023-04-13T19:07:57.677Z,22.20
2023-04-13T19:10:59.035Z,22.20
2023-04-13T19:14:03.448Z,22.10
2023-04-13T19:17:05.089Z,22.20
2023-04-13T19:20:11.531Z,22.20
2023-04-13T19:23:13.651Z,22.10
2023-04-13T19:26:15.128Z,22.20
2023-04-13T19:29:16.817Z,22.60
2023-04-13T19:32:18.980Z,22.20
2023-04-13T19:35:23.428Z,22.20
2023-04-13T19:38:25.638Z,22.90
2023-04-13T19:41:27.447Z,22.00
2023-04-13T19:44:29.723Z,22.10
2023-04-13T19:47:32.433Z,22.00
2023-04-13T19:50:35.451Z,22.20
2023-04-13T19:53:38.319Z,22.00
2023-04-13T19:56:40.108Z,22.10
2023-04-13T19:59:43.076Z,22.00
2023-04-13T20:02:47.373Z,22.00
2023-04-13T20:05:48.847Z,22.10
2023-04-13T20:08:50.836Z,22.00
2023-04-13T20:11:52.319Z,22.30
2023-04-13T20:14:53.707Z,22.40
2023-04-13T20:17:56.850Z,21.90
2023-04-13T20:20:59.799Z,22.30
2023-04-13T20:24:02.574Z,22.70
2023-04-13T20:27:04.570Z,21.90
2023-04-13T20:30:06.676Z,21.90
2023-04-13T20:33:08.562Z,21.90
2023-04-13T20:36:10.091Z,22.30
2023-04-13T20:39:12.863Z,22.20
2023-04-13T20:42:17.345Z,21.70
2023-04-13T20:45:22.489Z,21.90
2023-04-13T20:51:30.524Z,21.80
2023-04-13T20:54:35.650Z,21.70
2023-04-13T20:57:42.623Z,22.20
2023-04-13T21:00:44.401Z,21.80
2023-04-13T21:03:45.959Z,21.80
2023-04-13T21:06:49.503Z,21.80
2023-04-13T21:09:54.452Z,21.90
2023-04-13T21:12:55.903Z,22.20
2023-04-13T21:15:57.421Z,21.70
2023-04-13T21:18:58.661Z,21.90
2023-04-13T21:22:00.024Z,21.70
2023-04-13T21:25:05.202Z,21.60
2023-04-13T21:28:06.877Z,21.60
2023-04-13T21:31:12.579Z,21.70
2023-04-13T21:34:15.086Z,21.80
2023-04-13T21:37:16.467Z,21.90
2023-04-13T21:40:18.615Z,21.40
2023-04-13T21:43:20.534Z,21.50
2023-04-13T21:46:22.014Z,21.50
2023-04-13T21:49:23.428Z,21.50
2023-04-13T21:52:24.918Z,21.60
2023-04-13T21:55:26.705Z,21.70
2023-04-13T21:58:36.230Z,22.00
2023-04-13T22:01:37.778Z,21.50
2023-04-13T22:04:39.305Z,21.60
2023-04-13T22:07:43.233Z,21.30
2023-04-13T22:10:45.747Z,21.40
2023-04-13T22:13:47.128Z,21.40
2023-04-13T22:16:48.964Z,21.30
2023-04-13T22:19:50.388Z,21.40
2023-04-13T22:22:51.638Z,21.30
2023-04-13T22:25:57.803Z,21.30
2023-04-13T22:28:59.760Z,21.40
2023-04-13T22:32:01.623Z,21.50
2023-04-13T22:35:03.303Z,21.60
2023-04-13T22:38:07.272Z,21.20
2023-04-13T22:41:09.648Z,21.20
2023-04-13T22:44:11.116Z,21.20
2023-04-13T22:47:12.747Z,21.20
2023-04-13T22:50:14.195Z,21.00
2023-04-13T22:53:15.522Z,21.20
2023-04-13T22:56:17.542Z,21.00
2023-04-13T22:59:18.998Z,21.00
2023-04-13T23:02:20.576Z,21.10
2023-04-13T23:05:22.310Z,21.60
2023-04-13T23:08:23.845Z,21.00
2023-04-13T23:11:25.929Z,20.90
2023-04-13T23:14:27.415Z,21.00
2023-04-13T23:17:28.806Z,21.10
2023-04-13T23:20:31.009Z,21.10
2023-04-13T23:23:32.360Z,21.00
2023-04-13T23:26:34.312Z,20.80
2023-04-13T23:29:36.189Z,20.90
2023-04-13T23:32:38.132Z,20.90
2023-04-13T23:35:39.712Z,21.30
2023-04-13T23:38:40.953Z,20.90
2023-04-13T23:41:43.131Z,21.20
2023-04-13T23:44:44.628Z,21.30
2023-04-13T23:47:45.922Z,20.80
2023-04-13T23:50:48.142Z,20.80
2023-04-13T23:53:51.938Z,20.80
2023-04-13T23:56:53.877Z,20.80
2023-04-13T23:59:56.127Z,20.90
